createdAt,value
2023-06-02T00:01:33.418Z,1.23
2023-06-02T00:03:33.357Z,1.30
2023-06-02T00:05:34.160Z,1.27
2023-06-02T00:07:32.227Z,1.10
2023-06-02T00:09:30.168Z,1.20
2023-06-02T00:11:27.965Z,1.20
2023-06-02T00:13:26.089Z,1.33
2023-06-02T00:15:24.069Z,2.07
2023-06-02T00:17:22.030Z,1.47
2023-06-02T00:19:20.283Z,1.10
2023-06-02T00:21:20.176Z,1.07
2023-06-02T00:23:18.246Z,1.00
2023-06-02T00:25:16.142Z,1.43
2023-06-02T00:27:14.224Z,1.23
2023-06-02T00:29:12.281Z,1.60
2023-06-02T00:31:11.104Z,0.90
2023-06-02T00:33:09.090Z,1.07
2023-06-02T00:35:07.522Z,1.03
2023-06-02T00:37:07.156Z,1.97
2023-06-02T00:39:05.565Z,1.50
2023-06-02T00:41:03.505Z,1.37
2023-06-02T00:43:01.687Z,1.23
2023-06-02T00:44:59.709Z,1.30
2023-06-02T00:46:57.553Z,1.10
2023-06-02T00:48:55.587Z,0.97
2023-06-02T00:50:53.390Z,1.57
2023-06-02T00:52:56.371Z,1.33
2023-06-02T00:54:54.918Z,1.30
2023-06-02T00:56:52.779Z,0.73
2023-06-02T00:58:50.941Z,1.40
2023-06-02T01:00:49.015Z,1.33
2023-06-02T01:02:48.553Z,1.20
2023-06-02T01:04:48.285Z,1.50
2023-06-02T01:06:49.623Z,1.33
2023-06-02T01:08:49.253Z,1.73
2023-06-02T01:10:47.321Z,1.50
2023-06-02T01:12:45.995Z,0.97
2023-06-02T01:14:43.883Z,0.83
2023-06-02T01:16:45.527Z,1.37
2023-06-02T01:18:46.562Z,1.07
2023-06-02T01:20:50.594Z,1.77
2023-06-02T01:22:57.750Z,1.03
2023-06-02T01:26:59.807Z,1.23
2023-06-02T01:28:58.955Z,1.20
2023-06-02T01:30:59.034Z,1.10
2023-06-02T01:33:00.245Z,1.37
2023-06-02T01:35:01.912Z,2.33
2023-06-02T01:37:00.153Z,1.00
2023-06-02T01:38:58.675Z,1.20
2023-06-02T01:40:58.098Z,1.60
2023-06-02T01:42:58.690Z,0.90
2023-06-02T01:44:58.882Z,1.70
2023-06-02T01:46:57.493Z,1.63
2023-06-02T01:48:55.759Z,2.47
2023-06-02T01:50:53.658Z,1.97
2023-06-02T01:52:50.545Z,1.80
2023-06-02T01:54:49.831Z,1.50
2023-06-02T01:56:48.146Z,1.60
2023-06-02T01:58:49.418Z,1.57
2023-06-02T02:00:47.518Z,1.53
2023-06-02T02:02:45.433Z,2.33
2023-06-02T02:04:43.469Z,1.70
2023-06-02T02:06:43.350Z,1.80
2023-06-02T02:08:41.062Z,1.10
2023-06-02T02:10:38.959Z,1.17
2023-06-02T02:12:36.839Z,1.10
2023-06-02T02:14:36.103Z,1.33
2023-06-02T02:16:34.111Z,1.03
2023-06-02T02:18:32.169Z,1.20
2023-06-02T02:20:30.380Z,1.50
2023-06-02T02:22:28.545Z,1.40
2023-06-02T02:24:26.912Z,0.77
2023-06-02T02:26:24.846Z,1.20
2023-06-02T02:28:23.139Z,1.20
2023-06-02T02:30:22.515Z,1.20
2023-06-02T02:32:20.502Z,1.47
2023-06-02T02:34:21.046Z,1.60
2023-06-02T02:36:19.167Z,1.37
2023-06-02T02:38:17.613Z,0.97
2023-06-02T02:40:15.993Z,1.33
2023-06-02T02:42:13.851Z,1.50
2023-06-02T02:44:11.845Z,1.83
2023-06-02T02:46:11.651Z,1.73
2023-06-02T02:48:09.770Z,1.00
2023-06-02T02:50:08.326Z,1.60
2023-06-02T02:52:06.585Z,1.27
2023-06-02T02:54:04.929Z,1.47
2023-06-02T02:56:03.962Z,1.63
2023-06-02T02:58:03.181Z,1.10
2023-06-02T03:00:01.947Z,1.73
2023-06-02T03:02:06.349Z,1.40
2023-06-02T03:04:03.833Z,1.10
2023-06-02T03:06:04.438Z,1.60
2023-06-02T03:08:05.111Z,1.33
2023-06-02T03:10:03.038Z,2.00
2023-06-02T03:12:02.576Z,1.47
2023-06-02T03:14:01.077Z,1.17
2023-06-02T03:15:59.208Z,1.50
2023-06-02T03:18:00.407Z,1.23
2023-06-02T03:19:59.191Z,1.10
2023-06-02T03:21:58.074Z,1.33
2023-06-02T03:23:57.714Z,0.67
2023-06-02T03:25:56.249Z,1.07
2023-06-02T03:27:54.185Z,1.43
2023-06-02T03:29:52.139Z,1.60
2023-06-02T03:31:54.480Z,1.63
2023-06-02T03:33:55.924Z,1.43
2023-06-02T03:35:54.505Z,1.70
2023-06-02T03:37:52.556Z,1.67
2023-06-02T03:39:50.585Z,1.23
2023-06-02T03:41:50.085Z,1.33
2023-06-02T03:43:47.973Z,1.23
2023-06-02T03:45:46.616Z,1.43
2023-06-02T03:47:46.870Z,0.90
2023-06-02T03:49:49.435Z,1.47
2023-06-02T03:51:49.215Z,1.50
2023-06-02T03:53:47.113Z,1.40
2023-06-02T03:55:45.048Z,1.53
2023-06-02T03:57:44.310Z,1.63
2023-06-02T03:59:42.583Z,1.97
2023-06-02T04:01:42.832Z,1.43
2023-06-02T04:03:42.771Z,1.47
2023-06-02T04:05:44.552Z,1.73
2023-06-02T04:07:42.733Z,1.97
2023-06-02T04:09:40.718Z,1.80
2023-06-02T04:11:38.743Z,1.53
2023-06-02T04:13:36.745Z,2.17
2023-06-02T04:15:35.461Z,1.57
2023-06-02T04:17:34.158Z,1.60
2023-06-02T04:19:32.777Z,2.33
2023-06-02T04:21:32.398Z,1.60
2023-06-02T04:23:30.504Z,1.70
2023-06-02T04:25:28.411Z,2.97
2023-06-02T04:27:26.754Z,1.30
2023-06-02T04:29:25.403Z,1.63
2023-06-02T04:31:39.416Z,1.47
2023-06-02T04:33:39.167Z,1.43
2023-06-02T04:35:39.582Z,1.60
2023-06-02T04:37:39.259Z,1.77
2023-06-02T04:39:37.769Z,1.43
2023-06-02T04:41:37.592Z,1.17
2023-06-02T04:43:36.431Z,1.00
2023-06-02T04:45:36.193Z,0.80
2023-06-02T04:47:34.382Z,1.07
2023-06-02T04:49:32.489Z,1.27
2023-06-02T04:51:31.388Z,1.20
2023-06-02T04:53:31.869Z,0.83
2023-06-02T04:55:30.914Z,1.07
2023-06-02T04:57:28.862Z,1.23
2023-06-02T04:59:28.366Z,1.50
2023-06-02T05:01:26.394Z,0.90
2023-06-02T05:03:24.381Z,1.13
2023-06-02T05:05:22.424Z,1.43
2023-06-02T05:07:20.615Z,1.23
2023-06-02T05:09:20.138Z,0.83
2023-06-02T05:11:18.668Z,1.37
2023-06-02T05:13:18.265Z,1.20
2023-06-02T05:15:17.791Z,0.80
2023-06-02T05:17:16.501Z,1.17
2023-06-02T05:19:14.405Z,1.03
2023-06-02T05:21:12.236Z,0.80
2023-06-02T05:23:10.241Z,1.27
2023-06-02T05:25:11.596Z,1.23
2023-06-02T05:27:11.198Z,0.70
2023-06-02T05:29:09.180Z,1.10
2023-06-02T05:31:07.809Z,1.27
2023-06-02T05:33:05.831Z,1.77
2023-06-02T05:35:03.970Z,1.33
2023-06-02T05:37:01.897Z,1.67
2023-06-02T05:39:01.126Z,1.30
2023-06-02T05:41:00.623Z,2.03
2023-06-02T05:42:58.831Z,1.20
2023-06-02T05:44:56.847Z,1.90
2023-06-02T05:46:55.544Z,1.10
2023-06-02T05:48:53.985Z,1.43
2023-06-02T05:50:52.594Z,1.33
2023-06-02T05:52:51.742Z,1.17
2023-06-02T05:54:49.808Z,1.93
2023-06-02T05:56:49.067Z,1.30
2023-06-02T05:58:48.280Z,1.43
2023-06-02T06:00:47.109Z,1.37
2023-06-02T06:02:46.795Z,1.90
2023-06-02T06:04:50.848Z,1.47
2023-06-02T06:06:49.048Z,0.57
2023-06-02T06:08:46.857Z,1.33
2023-06-02T06:10:44.923Z,1.50
2023-06-02T06:12:47.728Z,0.80
2023-06-02T06:14:46.112Z,1.50
2023-06-02T06:16:44.101Z,1.43
2023-06-02T06:18:43.296Z,4.67
2023-06-02T06:20:43.149Z,12.83
2023-06-02T06:22:41.332Z,51.40
2023-06-02T06:24:39.603Z,34.10
2023-06-02T06:26:37.731Z,2.67
2023-06-02T06:28:37.437Z,1.47
2023-06-02T06:30:35.400Z,2.60
2023-06-02T06:32:36.920Z,1.80
2023-06-02T06:34:34.984Z,1.13
2023-06-02T06:36:35.018Z,1.23
2023-06-02T06:38:33.328Z,1.33
2023-06-02T06:40:31.510Z,1.40
2023-06-02T06:42:29.592Z,1.60
2023-06-02T06:44:35.096Z,1.73
2023-06-02T06:46:33.201Z,1.00
2023-06-02T06:48:32.008Z,1.40
2023-06-02T06:50:30.057Z,1.77
2023-06-02T06:52:28.821Z,1.17
2023-06-02T06:54:27.006Z,1.40
2023-06-02T06:56:25.102Z,1.07
2023-06-02T06:58:22.900Z,15.17
2023-06-02T07:00:22.468Z,5.00
2023-06-02T07:02:20.359Z,2.33
2023-06-02T07:04:19.402Z,0.97
2023-06-02T07:06:17.344Z,0.70
2023-06-02T07:08:15.461Z,1.30
2023-06-02T07:10:15.363Z,1.93
2023-06-02T07:12:13.293Z,0.95
2023-06-02T07:16:13.953Z,0.82
2023-06-02T07:18:12.009Z,1.00
2023-06-02T07:20:10.521Z,0.77
2023-06-02T07:22:09.105Z,2.07
2023-06-02T07:24:07.222Z,2.53
2023-06-02T07:26:05.291Z,9.10
2023-06-02T07:28:04.345Z,50.57
2023-06-02T07:30:02.493Z,1.63
2023-06-02T07:32:02.066Z,2.90
2023-06-02T07:34:00.173Z,1.48
2023-06-02T07:35:58.255Z,1.30
2023-06-02T07:37:56.497Z,1.05
2023-06-02T07:39:54.552Z,0.98
2023-06-02T07:41:52.604Z,0.57
2023-06-02T07:43:50.522Z,0.67
2023-06-02T07:45:48.630Z,0.70
2023-06-02T07:47:48.076Z,0.80
2023-06-02T07:49:46.296Z,1.30
2023-06-02T07:51:44.293Z,0.87
2023-06-02T07:53:42.264Z,1.30
2023-06-02T07:55:40.417Z,0.43
2023-06-02T07:57:38.444Z,0.83
2023-06-02T07:59:37.846Z,0.57
2023-06-02T08:01:35.780Z,0.77
2023-06-02T08:03:35.196Z,0.87
2023-06-02T08:05:33.236Z,0.63
2023-06-02T08:07:31.360Z,1.00
2023-06-02T08:09:29.305Z,1.00
2023-06-02T08:11:27.592Z,0.57
2023-06-02T08:13:25.516Z,0.93
2023-06-02T08:15:23.604Z,0.70
2023-06-02T08:17:21.875Z,0.50
2023-06-02T08:19:22.133Z,0.77
2023-06-02T08:21:20.413Z,0.90
2023-06-02T08:23:18.790Z,1.07
2023-06-02T08:25:17.151Z,1.10
2023-06-02T08:27:15.819Z,0.90
2023-06-02T08:29:13.870Z,1.13
2023-06-02T08:31:11.915Z,1.00
2023-06-02T08:33:15.420Z,0.70
2023-06-02T08:35:15.180Z,0.73
2023-06-02T08:37:17.390Z,0.85
2023-06-02T08:39:15.344Z,0.45
2023-06-02T08:41:14.103Z,0.60
2023-06-02T08:43:14.260Z,0.80
2023-06-02T08:45:12.456Z,0.95
2023-06-02T08:47:12.445Z,0.50
2023-06-02T08:49:10.420Z,0.40
2023-06-02T08:51:10.960Z,0.52
2023-06-02T08:53:12.786Z,0.50
2023-06-02T08:55:11.017Z,0.35
2023-06-02T08:57:10.580Z,0.70
2023-06-02T08:59:08.504Z,0.88
2023-06-02T09:01:06.503Z,0.45
2023-06-02T09:03:04.788Z,0.30
2023-06-02T09:05:04.244Z,0.32
2023-06-02T09:07:21.193Z,0.60
2023-06-02T09:09:19.102Z,0.30
2023-06-02T09:11:19.180Z,0.30
2023-06-02T09:13:31.692Z,0.40
2023-06-02T09:15:29.599Z,0.43
2023-06-02T09:17:28.787Z,0.40
2023-06-02T09:19:26.825Z,0.50
2023-06-02T09:21:28.260Z,0.47
2023-06-02T09:23:41.498Z,0.20
2023-06-02T09:25:41.743Z,0.20
2023-06-02T09:27:51.618Z,0.40
2023-06-02T09:29:51.731Z,0.50
2023-06-02T09:31:52.861Z,0.20
2023-06-02T09:33:59.453Z,0.30
2023-06-02T09:35:58.533Z,0.10
2023-06-02T09:37:58.561Z,1.27
2023-06-02T09:40:06.441Z,0.80
2023-06-02T09:42:04.483Z,0.70
2023-06-02T09:44:04.880Z,0.22
2023-06-02T09:46:05.713Z,0.60
2023-06-02T09:48:04.199Z,0.70
2023-06-02T09:50:02.189Z,0.52
2023-06-02T09:52:12.408Z,0.40
2023-06-02T09:54:10.570Z,0.28
2023-06-02T09:56:09.984Z,0.43
2023-06-02T09:58:08.473Z,0.22
2023-06-02T10:00:12.867Z,0.40
2023-06-02T10:02:11.250Z,0.30
2023-06-02T10:04:09.553Z,0.17
2023-06-02T10:06:10.623Z,0.45
2023-06-02T10:08:14.081Z,0.77
2023-06-02T10:12:24.897Z,0.50
2023-06-02T10:14:40.226Z,0.40
2023-06-02T10:16:46.071Z,0.50
2023-06-02T10:19:01.786Z,0.38
2023-06-02T10:21:03.005Z,0.43
2023-06-02T10:23:20.324Z,0.20
2023-06-02T10:25:21.348Z,0.20
2023-06-02T10:27:27.300Z,0.50
2023-06-02T10:29:27.207Z,0.50
2023-06-02T10:31:31.013Z,0.40
2023-06-02T10:33:43.954Z,0.43
2023-06-02T10:35:57.244Z,0.32
2023-06-02T10:38:10.086Z,0.30
2023-06-02T10:40:11.409Z,5.65
2023-06-02T10:42:10.170Z,5.10
2023-06-02T10:44:25.513Z,6.50
2023-06-02T10:46:23.866Z,1.17
2023-06-02T10:48:38.153Z,0.40
2023-06-02T10:50:51.426Z,0.30
2023-06-02T10:53:14.308Z,0.25
2023-06-02T10:55:28.913Z,0.40
2023-06-02T10:57:41.793Z,3.92
2023-06-02T10:59:41.085Z,1.13
2023-06-02T11:01:45.596Z,0.22
2023-06-02T11:03:43.582Z,1.42
2023-06-02T11:05:41.715Z,1.70
2023-06-02T11:07:39.717Z,0.35
2023-06-02T11:09:37.802Z,0.68
2023-06-02T11:11:53.105Z,0.88
2023-06-02T11:13:58.132Z,1.98
2023-06-02T11:16:11.948Z,0.90
2023-06-02T11:18:29.321Z,4.38
2023-06-02T11:20:36.089Z,0.30
2023-06-02T11:22:34.937Z,8.43
2023-06-02T11:24:33.072Z,8.55
2023-06-02T11:26:31.113Z,0.90
2023-06-02T11:28:29.314Z,1.70
2023-06-02T11:30:27.315Z,0.43
2023-06-02T11:32:25.690Z,0.77
2023-06-02T11:34:23.875Z,0.10
2023-06-02T11:36:29.665Z,0.50
2023-06-02T11:38:33.416Z,0.60
2023-06-02T11:40:33.534Z,0.57
2023-06-02T11:42:35.990Z,0.22
2023-06-02T11:44:34.096Z,0.88
2023-06-02T11:46:32.322Z,0.30
2023-06-02T11:48:31.901Z,0.50
2023-06-02T11:50:30.374Z,0.40
2023-06-02T11:52:33.891Z,0.20
2023-06-02T11:54:31.882Z,0.10
2023-06-02T11:56:29.825Z,0.10
2023-06-02T11:58:28.918Z,0.40
2023-06-02T12:00:32.185Z,0.20
2023-06-02T12:02:30.586Z,0.20
2023-06-02T12:04:28.822Z,0.20
2023-06-02T12:06:27.140Z,0.40
2023-06-02T12:08:28.442Z,0.20
2023-06-02T12:10:33.403Z,0.25
2023-06-02T12:12:31.663Z,0.63
2023-06-02T12:14:39.446Z,0.57
2023-06-02T12:16:40.231Z,0.30
2023-06-02T12:18:38.780Z,0.30
2023-06-02T12:20:38.038Z,0.50
2023-06-02T12:22:36.544Z,0.60
2023-06-02T12:24:39.102Z,0.52
2023-06-02T12:26:44.170Z,0.30
2023-06-02T12:28:43.049Z,0.47
2023-06-02T12:30:41.594Z,0.20
2023-06-02T12:32:40.493Z,0.40
2023-06-02T12:34:39.562Z,0.17
2023-06-02T12:36:38.464Z,0.10
2023-06-02T12:38:37.204Z,0.60
2023-06-02T12:40:37.558Z,0.50
2023-06-02T12:42:36.075Z,0.37
2023-06-02T12:44:37.337Z,0.13
2023-06-02T12:46:44.812Z,0.20
2023-06-02T12:48:44.340Z,0.23
2023-06-02T12:50:42.684Z,0.30
2023-06-02T12:52:41.304Z,0.30
2023-06-02T12:54:39.951Z,1.27
2023-06-02T12:56:44.057Z,0.30
2023-06-02T12:58:43.057Z,0.30
2023-06-02T13:00:42.437Z,0.30
2023-06-02T13:02:50.150Z,0.50
2023-06-02T13:04:48.844Z,1.13
2023-06-02T13:06:47.496Z,0.87
2023-06-02T13:08:46.668Z,0.40
2023-06-02T13:10:45.170Z,0.67
2023-06-02T13:12:44.998Z,0.40
2023-06-02T13:14:43.468Z,0.23
2023-06-02T13:16:42.080Z,0.80
2023-06-02T13:18:40.576Z,0.70
2023-06-02T13:20:39.411Z,0.30
2023-06-02T13:22:37.789Z,0.50
2023-06-02T13:24:36.355Z,0.60
2023-06-02T13:26:35.158Z,0.40
2023-06-02T13:28:36.715Z,0.20
2023-06-02T13:30:36.046Z,0.50
2023-06-02T13:32:34.421Z,0.50
2023-06-02T13:34:34.955Z,0.33
2023-06-02T13:36:33.816Z,0.37
2023-06-02T13:38:31.767Z,0.50
2023-06-02T13:40:29.806Z,0.47
2023-06-02T13:42:27.766Z,0.40
2023-06-02T13:44:27.003Z,0.35
2023-06-02T13:46:25.045Z,0.32
2023-06-02T13:48:23.017Z,0.63
2023-06-02T13:50:21.064Z,0.60
2023-06-02T13:52:19.062Z,0.50
2023-06-02T13:54:17.356Z,0.52
2023-06-02T13:56:16.110Z,0.47
2023-06-02T13:58:14.050Z,0.30
2023-06-02T14:00:14.338Z,0.33
2023-06-02T14:02:12.519Z,0.37
2023-06-02T14:04:11.139Z,0.20
2023-06-02T14:06:09.300Z,0.20
2023-06-02T14:08:07.397Z,0.17
2023-06-02T14:10:05.466Z,0.13
2023-06-02T14:12:03.691Z,0.20
2023-06-02T14:14:01.650Z,0.50
2023-06-02T14:16:00.934Z,0.50
2023-06-02T14:17:59.124Z,0.20
2023-06-02T14:19:57.112Z,0.20
2023-06-02T14:21:55.187Z,0.50
2023-06-02T14:23:53.251Z,0.20
2023-06-02T14:25:51.239Z,0.47
2023-06-02T14:27:49.258Z,1.57
2023-06-02T14:29:47.107Z,0.40
2023-06-02T14:31:46.560Z,0.53
2023-06-02T14:33:44.495Z,0.90
2023-06-02T14:35:43.262Z,1.50
2023-06-02T14:37:41.280Z,0.93
2023-06-02T14:39:39.288Z,1.87
2023-06-02T14:41:37.307Z,1.87
2023-06-02T14:43:35.526Z,0.80
2023-06-02T14:45:33.488Z,2.00
2023-06-02T14:47:34.734Z,2.23
2023-06-02T14:49:32.719Z,1.67
2023-06-02T14:51:30.950Z,1.30
2023-06-02T14:53:28.979Z,1.00
2023-06-02T14:55:26.984Z,1.60
2023-06-02T14:57:25.514Z,1.13
2023-06-02T14:59:23.601Z,1.57
2023-06-02T15:01:21.732Z,1.47
2023-06-02T15:03:21.169Z,1.60
2023-06-02T15:05:19.371Z,1.13
2023-06-02T15:07:19.694Z,1.10
2023-06-02T15:09:17.823Z,1.00
2023-06-02T15:11:15.931Z,1.30
2023-06-02T15:13:14.124Z,1.23
2023-06-02T15:15:12.170Z,1.00
2023-06-02T15:17:10.562Z,1.53
2023-06-02T15:19:10.543Z,2.67
2023-06-02T15:21:08.433Z,2.50
2023-06-02T15:23:06.683Z,1.80
2023-06-02T15:25:05.103Z,2.60
2023-06-02T15:27:03.329Z,2.13
2023-06-02T15:29:01.439Z,2.67
2023-06-02T15:30:59.645Z,2.20
2023-06-02T15:32:57.957Z,2.43
2023-06-02T15:34:57.539Z,5.10
2023-06-02T15:36:55.560Z,3.90
2023-06-02T15:38:53.583Z,2.97
2023-06-02T15:40:51.635Z,3.30
2023-06-02T15:42:49.726Z,2.90
2023-06-02T15:44:47.760Z,2.50
2023-06-02T15:46:45.993Z,3.33
2023-06-02T15:48:45.814Z,2.60
2023-06-02T15:50:45.093Z,3.17
2023-06-02T15:52:43.210Z,2.93
2023-06-02T15:54:41.350Z,2.90
2023-06-02T15:56:39.301Z,3.13
2023-06-02T15:58:37.429Z,2.60
2023-06-02T16:00:35.567Z,2.87
2023-06-02T16:02:33.756Z,3.03
2023-06-02T16:04:31.729Z,8.93
2023-06-02T16:06:31.705Z,6.03
2023-06-02T16:08:29.737Z,5.50
2023-06-02T16:10:27.681Z,5.87
2023-06-02T16:12:25.968Z,6.90
2023-06-02T16:14:23.939Z,6.03
2023-06-02T16:16:22.006Z,6.00
2023-06-02T16:18:20.067Z,4.40
2023-06-02T16:20:18.325Z,3.87
2023-06-02T16:22:17.974Z,2.90
2023-06-02T16:24:16.048Z,4.27
2023-06-02T16:26:14.412Z,3.20
2023-06-02T16:28:12.633Z,4.00
2023-06-02T16:30:11.486Z,3.83
2023-06-02T16:32:09.719Z,3.23
2023-06-02T16:34:07.873Z,3.77
2023-06-02T16:36:06.941Z,3.17
2023-06-02T16:38:07.834Z,3.70
2023-06-02T16:40:06.645Z,3.13
2023-06-02T16:42:04.926Z,2.63
2023-06-02T16:44:03.679Z,3.27
2023-06-02T16:46:01.840Z,3.53
2023-06-02T16:48:00.325Z,3.40
2023-06-02T16:49:58.732Z,3.63
2023-06-02T16:51:58.294Z,2.80
2023-06-02T16:53:57.753Z,4.27
2023-06-02T16:55:56.065Z,3.57
2023-06-02T16:57:54.380Z,2.43
2023-06-02T16:59:52.421Z,2.57
2023-06-02T17:01:50.832Z,2.90
2023-06-02T17:03:48.941Z,3.23
2023-06-02T17:05:50.485Z,2.80
2023-06-02T17:07:49.292Z,3.83
2023-06-02T17:09:50.841Z,3.17
2023-06-02T17:11:49.349Z,3.53
2023-06-02T17:13:53.169Z,2.57
2023-06-02T17:15:51.550Z,3.88
2023-06-02T17:17:49.742Z,2.27
2023-06-02T17:19:47.657Z,1.90
2023-06-02T17:21:45.810Z,3.07
2023-06-02T17:23:43.892Z,2.30
2023-06-02T17:25:43.367Z,3.27
2023-06-02T17:27:41.366Z,2.80
2023-06-02T17:29:39.481Z,2.73
2023-06-02T17:31:37.637Z,2.57
2023-06-02T17:33:36.873Z,2.50
2023-06-02T17:35:34.979Z,1.93
2023-06-02T17:37:35.120Z,2.03
2023-06-02T17:39:33.153Z,3.50
2023-06-02T17:41:32.485Z,2.00
2023-06-02T17:43:30.422Z,3.33
2023-06-02T17:45:28.728Z,3.87
2023-06-02T17:47:26.926Z,2.37
2023-06-02T17:49:25.139Z,3.50
2023-06-02T17:51:23.913Z,3.70
2023-06-02T17:53:21.927Z,3.27
2023-06-02T17:55:20.695Z,3.17
2023-06-02T17:57:20.104Z,3.20
2023-06-02T17:59:18.258Z,4.10
2023-06-02T18:01:16.454Z,3.47
2023-06-02T18:03:14.575Z,3.53
2023-06-02T18:05:12.729Z,2.53
2023-06-02T18:07:10.827Z,4.13
2023-06-02T18:09:08.959Z,3.13
2023-06-02T18:11:07.352Z,2.93
2023-06-02T18:13:07.010Z,4.23
2023-06-02T18:15:05.321Z,4.23
2023-06-02T18:17:03.332Z,3.33
2023-06-02T18:19:01.529Z,4.20
2023-06-02T18:20:59.494Z,3.50
2023-06-02T18:22:58.778Z,3.40
2023-06-02T18:24:59.931Z,5.03
2023-06-02T18:26:58.357Z,4.20
2023-06-02T18:28:58.011Z,4.13
2023-06-02T18:30:56.510Z,3.73
2023-06-02T18:32:54.959Z,3.33
2023-06-02T18:34:53.273Z,3.80
2023-06-02T18:36:51.392Z,3.70
2023-06-02T18:38:50.852Z,4.37
2023-06-02T18:40:50.058Z,3.93
2023-06-02T18:42:48.487Z,3.77
2023-06-02T18:44:48.152Z,3.60
2023-06-02T18:46:46.703Z,3.87
2023-06-02T18:48:45.050Z,4.43
2023-06-02T18:50:43.226Z,4.87
2023-06-02T18:52:41.190Z,5.97
2023-06-02T18:54:41.117Z,6.00
2023-06-02T18:56:39.095Z,12.90
2023-06-02T18:58:41.357Z,29.93
2023-06-02T19:00:40.909Z,21.10
2023-06-02T19:02:39.289Z,12.43
2023-06-02T19:04:37.516Z,9.00
2023-06-02T19:06:35.414Z,5.97
2023-06-02T19:08:33.598Z,4.40
2023-06-02T19:10:32.389Z,4.67
2023-06-02T19:12:30.725Z,4.20
2023-06-02T19:14:28.560Z,3.07
2023-06-02T19:16:28.351Z,2.80
2023-06-02T19:18:26.242Z,1.90
2023-06-02T19:20:24.322Z,1.97
2023-06-02T19:22:22.525Z,2.23
2023-06-02T19:24:20.675Z,1.57
2023-06-02T19:26:21.326Z,1.80
2023-06-02T19:28:19.529Z,1.63
2023-06-02T19:30:18.809Z,1.20
2023-06-02T19:32:18.268Z,2.03
2023-06-02T19:34:16.527Z,1.20
2023-06-02T19:36:14.466Z,0.60
2023-06-02T19:38:13.990Z,1.00
2023-06-02T19:40:12.625Z,1.23
2023-06-02T19:42:10.879Z,1.00
2023-06-02T19:44:17.013Z,0.70
2023-06-02T19:46:16.698Z,0.90
2023-06-02T19:48:17.228Z,0.60
2023-06-02T19:50:15.331Z,0.77
2023-06-02T19:52:13.400Z,0.60
2023-06-02T19:54:11.584Z,1.17
2023-06-02T19:56:09.990Z,0.90
2023-06-02T19:58:08.365Z,0.77
2023-06-02T20:00:08.516Z,0.63
2023-06-02T20:02:07.048Z,0.50
2023-06-02T20:04:07.554Z,0.50
2023-06-02T20:06:08.455Z,0.83
2023-06-02T20:08:06.608Z,4.63
2023-06-02T20:10:04.974Z,20.63
2023-06-02T20:12:03.137Z,35.13
2023-06-02T20:14:01.943Z,39.17
2023-06-02T20:16:00.141Z,15.10
2023-06-02T20:17:58.363Z,15.90
2023-06-02T20:19:58.068Z,4.53
2023-06-02T20:21:56.177Z,1.90
2023-06-02T20:23:54.201Z,1.10
2023-06-02T20:25:52.191Z,1.97
2023-06-02T20:27:50.077Z,11.70
2023-06-02T20:29:48.053Z,21.77
2023-06-02T20:31:46.211Z,21.27
2023-06-02T20:33:44.236Z,14.67
2023-06-02T20:35:43.692Z,4.37
2023-06-02T20:37:41.727Z,0.80
2023-06-02T20:39:39.723Z,0.30
2023-06-02T20:41:37.699Z,0.60
2023-06-02T20:43:35.853Z,0.40
2023-06-02T20:45:34.055Z,0.40
2023-06-02T20:47:32.107Z,0.63
2023-06-02T20:49:30.126Z,0.40
2023-06-02T20:51:29.487Z,0.50
2023-06-02T20:53:27.659Z,1.20
2023-06-02T20:55:25.930Z,0.40
2023-06-02T20:57:23.906Z,0.67
2023-06-02T20:59:21.949Z,0.60
2023-06-02T21:01:20.165Z,1.00
2023-06-02T21:03:18.183Z,0.73
2023-06-02T21:05:16.291Z,0.70
2023-06-02T21:07:15.743Z,0.60
2023-06-02T21:09:13.858Z,0.70
2023-06-02T21:11:11.923Z,1.00
2023-06-02T21:13:09.926Z,0.70
2023-06-02T21:15:08.891Z,1.33
2023-06-02T21:17:07.128Z,0.87
2023-06-02T21:19:06.818Z,0.97
2023-06-02T21:21:05.162Z,0.50
2023-06-02T21:23:04.802Z,0.90
2023-06-02T21:25:04.416Z,0.63
2023-06-02T21:27:02.346Z,0.63
2023-06-02T21:29:00.286Z,0.77
2023-06-02T21:30:58.346Z,0.30
2023-06-02T21:32:56.330Z,0.33
2023-06-02T21:34:54.442Z,0.80
2023-06-02T21:36:52.292Z,0.50
2023-06-02T21:38:51.722Z,0.33
2023-06-02T21:40:49.897Z,1.17
2023-06-02T21:42:47.887Z,1.43
2023-06-02T21:44:47.639Z,3.50
2023-06-02T21:46:46.121Z,2.63
2023-06-02T21:48:44.104Z,2.63
2023-06-02T21:50:42.127Z,1.97
2023-06-02T21:52:39.943Z,0.70
2023-06-02T21:54:40.008Z,0.50
2023-06-02T21:56:38.846Z,0.10
2023-06-02T21:58:37.078Z,0.10
2023-06-02T22:00:35.075Z,0.10
2023-06-02T22:02:34.196Z,0.10
2023-06-02T22:04:32.165Z,0.10
2023-06-02T22:06:30.558Z,0.07
2023-06-02T22:08:28.421Z,0.20
2023-06-02T22:10:28.117Z,0.10
2023-06-02T22:12:26.134Z,0.10
2023-06-02T22:14:24.020Z,0.07
2023-06-02T22:16:22.010Z,0.30
2023-06-02T22:18:20.099Z,0.20
2023-06-02T22:20:18.173Z,0.07
2023-06-02T22:22:16.200Z,0.30
2023-06-02T22:24:27.142Z,0.00
2023-06-02T22:26:27.984Z,0.00
2023-06-02T22:28:26.078Z,0.27
2023-06-02T22:30:24.057Z,0.13
2023-06-02T22:32:22.066Z,0.10
2023-06-02T22:34:19.970Z,0.07
2023-06-02T22:36:18.045Z,0.10
2023-06-02T22:38:16.074Z,0.10
2023-06-02T22:40:14.811Z,0.13
2023-06-02T22:42:14.296Z,0.10
2023-06-02T22:44:12.207Z,0.10
2023-06-02T22:46:10.168Z,0.10
2023-06-02T22:48:08.200Z,0.13
2023-06-02T22:50:06.701Z,0.10
2023-06-02T22:52:04.830Z,0.20
2023-06-02T22:54:02.782Z,0.20
2023-06-02T22:56:01.336Z,0.40
2023-06-02T22:58:00.669Z,0.10
2023-06-02T22:59:58.584Z,0.10
2023-06-02T23:01:56.612Z,0.20
2023-06-02T23:03:54.512Z,0.30
2023-06-02T23:05:52.309Z,0.20
2023-06-02T23:07:50.331Z,0.40
2023-06-02T23:09:47.221Z,0.20
2023-06-02T23:11:45.243Z,0.10
2023-06-02T23:13:45.057Z,0.10
2023-06-02T23:15:42.927Z,0.40
2023-06-02T23:17:42.631Z,0.10
2023-06-02T23:19:41.903Z,0.10
2023-06-02T23:21:39.967Z,0.17
2023-06-02T23:23:37.874Z,0.13
2023-06-02T23:25:35.797Z,0.33
2023-06-02T23:27:33.775Z,0.27
2023-06-02T23:29:33.194Z,0.20
2023-06-02T23:31:31.476Z,0.20
2023-06-02T23:33:29.568Z,0.10
2023-06-02T23:35:27.553Z,0.20
2023-06-02T23:37:27.742Z,0.17
2023-06-02T23:39:26.052Z,0.20
2023-06-02T23:41:23.987Z,0.07
2023-06-02T23:43:22.465Z,0.10
2023-06-02T23:45:21.822Z,0.30
2023-06-02T23:47:20.260Z,0.20
2023-06-02T23:49:18.235Z,0.20
2023-06-02T23:51:16.020Z,0.30
2023-06-02T23:53:14.054Z,0.33
2023-06-02T23:55:12.412Z,0.33
2023-06-02T23:57:11.370Z,0.20
2023-06-02T23:59:09.405Z,0.30
